Time;durP1;ratioP1;P1;durP2;ratioP2;P2;SDS_P1;SDS_P2;PMS_P1;PMS_P2;Temp;Humidity;BMP_temperature;BMP_pressure;BME280_temperature;BME280_humidity;BME280_pressure;Samples;Min_cycle;Max_cycle;Signal;HPM_P1;HPM_P2
2022/06/14 00:01:23;;;;;;;1.10;0.93;;;26.60;52.50;;;;;;5075933;28;20441;-82
2022/06/14 00:03:49;;;;;;;1.30;1.10;;;26.60;52.50;;;;;;5075681;28;20401;-82
2022/06/14 00:09:38;;;;;;;1.13;1.03;;;26.60;52.50;;;;;;5076653;28;20158;-81
2022/06/14 00:12:06;;;;;;;1.20;1.00;;;26.50;52.40;;;;;;5075591;28;20497;-81
2022/06/14 00:14:32;;;;;;;1.20;0.97;;;26.50;52.50;;;;;;5075383;28;20461;-81
2022/06/14 00:17:01;;;;;;;1.30;1.00;;;26.50;52.50;;;;;;5076101;28;20424;-81
2022/06/14 00:19:29;;;;;;;1.30;1.20;;;26.50;52.40;;;;;;5076680;28;20448;-82
2022/06/14 00:22:01;;;;;;;1.33;1.23;;;26.50;52.40;;;;;;5077061;28;20396;-82
2022/06/14 00:24:29;;;;;;;1.40;1.20;;;26.50;52.40;;;;;;5076167;28;20405;-82
2022/06/14 00:26:57;;;;;;;2.17;1.13;;;26.50;52.40;;;;;;5076319;28;20405;-82
2022/06/14 00:29:23;;;;;;;1.43;1.23;;;26.50;52.40;;;;;;5075973;28;20422;-82
2022/06/14 00:31:49;;;;;;;1.50;1.40;;;26.50;52.40;;;;;;5067566;28;20457;-82
2022/06/14 00:34:15;;;;;;;2.20;1.10;;;26.50;52.50;;;;;;5068490;28;20203;-83
2022/06/14 00:36:52;;;;;;;1.27;1.10;;;26.50;52.40;;;;;;5068051;28;20175;-83
2022/06/14 00:39:18;;;;;;;1.40;1.07;;;26.50;52.40;;;;;;5068930;28;20166;-82
2022/06/14 00:41:51;;;;;;;1.40;1.30;;;26.50;52.40;;;;;;5068623;28;20413;-82
2022/06/14 00:44:20;;;;;;;1.10;1.00;;;26.50;52.50;;;;;;5067708;28;20233;-82
2022/06/14 00:47:14;;;;;;;1.30;1.03;;;26.50;52.50;;;;;;5067183;28;20540;-83
2022/06/14 00:49:56;;;;;;;1.27;1.07;;;26.50;52.50;;;;;;5065925;28;20509;-83
2022/06/14 00:52:32;;;;;;;1.27;1.17;;;26.50;52.50;;;;;;5069051;28;20843;-82
2022/06/14 00:55:07;;;;;;;1.30;1.17;;;26.50;52.50;;;;;;5068237;28;20449;-82
2022/06/14 00:57:48;;;;;;;1.20;1.10;;;26.50;52.50;;;;;;5067864;28;20411;-83
2022/06/14 01:00:19;;;;;;;1.30;1.17;;;26.50;52.40;;;;;;5066919;28;20410;-83
2022/06/14 01:02:54;;;;;;;1.40;1.30;;;26.50;52.50;;;;;;5068260;28;20437;-83
2022/06/14 01:08:53;;;;;;;1.40;1.23;;;26.50;52.40;;;;;;5063947;28;20762;-83
2022/06/14 01:11:35;;;;;;;1.10;0.97;;;26.50;52.50;;;;;;5066171;28;20501;-82
2022/06/14 01:14:06;;;;;;;1.47;1.17;;;26.50;52.50;;;;;;5068186;28;20397;-82
2022/06/14 01:16:36;;;;;;;1.50;1.20;;;26.50;52.50;;;;;;5067521;28;20390;-82
2022/06/14 01:19:07;;;;;;;1.53;1.30;;;26.50;52.50;;;;;;5066911;28;20406;-82
2022/06/14 01:21:39;;;;;;;1.30;1.20;;;26.50;52.50;;;;;;5066960;28;20415;-82
2022/06/14 01:24:05;;;;;;;1.00;0.90;;;26.50;52.50;;;;;;5067074;28;20428;-83
2022/06/14 01:26:32;;;;;;;1.17;1.07;;;26.50;52.50;;;;;;5066369;28;20790;-82
2022/06/14 01:29:02;;;;;;;1.23;1.10;;;26.50;52.40;;;;;;5065765;28;20416;-83
2022/06/14 01:31:39;;;;;;;;;;;;;;;;;;;;;
2022/06/14 01:34:08;;;;;;;1.30;1.20;;;26.50;52.40;;;;;;5067097;28;20425;-82
2022/06/14 01:36:38;;;;;;;1.67;1.27;;;26.50;52.40;;;;;;5065800;28;20420;-83
2022/06/14 01:39:07;;;;;;;1.10;0.90;;;26.50;52.40;;;;;;5066070;28;20429;-83
2022/06/14 01:42:04;;;;;;;1.20;0.97;;;26.50;52.50;;;;;;5066069;28;20508;-83
2022/06/14 01:45:05;;;;;;;1.23;1.00;;;26.50;52.40;;;;;;5065189;28;20414;-82
2022/06/14 01:47:45;;;;;;;1.20;1.10;;;26.50;52.50;;;;;;5048213;28;20413;-82
2022/06/14 01:53:21;;;;;;;1.20;1.10;;;26.40;52.40;;;;;;5066197;28;20404;-83
2022/06/14 01:55:58;;;;;;;1.03;0.93;;;26.40;52.50;;;;;;5066495;28;20453;-82
2022/06/14 01:59:12;;;;;;;1.70;1.30;;;26.40;52.50;;;;;;5066492;28;20397;-83
2022/06/14 02:01:43;;;;;;;1.17;1.00;;;26.40;52.40;;;;;;5059013;28;20445;-82
2022/06/14 02:04:39;;;;;;;1.00;0.90;;;26.40;52.40;;;;;;5065500;28;20501;-82
2022/06/14 02:07:18;;;;;;;1.37;1.27;;;26.40;52.50;;;;;;5064727;28;20406;-83
2022/06/14 02:09:43;;;;;;;1.47;1.30;;;26.40;52.40;;;;;;5066441;28;20398;-83
2022/06/14 02:12:14;;;;;;;1.20;1.10;;;26.40;52.50;;;;;;5066439;28;20447;-82
2022/06/14 02:14:57;;;;;;;1.40;1.23;;;26.40;52.40;;;;;;5066237;28;20217;-83
2022/06/14 02:17:42;;;;;;;1.43;1.10;;;26.40;52.40;;;;;;5065648;28;20393;-83
2022/06/14 02:20:14;;;;;;;1.30;1.20;;;26.40;52.40;;;;;;5066384;28;20496;-83
2022/06/14 02:22:45;;;;;;;1.50;1.20;;;26.40;52.40;;;;;;5065706;28;20500;-82
2022/06/14 02:25:27;;;;;;;1.30;1.10;;;26.40;52.40;;;;;;5065169;28;20433;-82
2022/06/14 02:27:56;;;;;;;1.50;1.20;;;26.40;52.40;;;;;;5066428;28;20401;-82
2022/06/14 02:30:30;;;;;;;1.23;1.13;;;26.40;52.40;;;;;;5065769;28;20433;-81
2022/06/14 02:33:12;;;;;;;1.20;1.10;;;26.40;52.40;;;;;;5066382;28;20428;-81
2022/06/14 02:36:01;;;;;;;1.30;1.10;;;26.40;52.40;;;;;;5065691;28;20457;-81
2022/06/14 02:38:37;;;;;;;1.30;1.20;;;26.40;52.40;;;;;;5065980;28;20410;-81
2022/06/14 02:41:32;;;;;;;1.30;1.10;;;26.40;52.40;;;;;;5067935;28;20409;-81
2022/06/14 02:44:08;;;;;;;1.20;1.10;;;26.40;52.40;;;;;;5056080;28;20559;-81
2022/06/14 02:46:48;;;;;;;1.20;1.10;;;26.40;52.40;;;;;;5062751;28;20471;-82
2022/06/14 02:49:45;;;;;;;2.20;1.40;;;26.40;52.40;;;;;;5067723;28;20440;-82
2022/06/14 02:52:18;;;;;;;1.40;1.30;;;26.40;52.40;;;;;;5067453;28;20432;-81
2022/06/14 02:54:57;;;;;;;1.20;1.10;;;26.40;52.40;;;;;;5067493;28;20457;-82
2022/06/14 02:57:32;;;;;;;1.50;1.40;;;26.40;52.40;;;;;;5068235;28;20417;-81
2022/06/14 03:00:10;;;;;;;2.30;1.40;;;26.40;52.40;;;;;;5064812;28;20440;-82
2022/06/14 03:02:49;;;;;;;1.73;1.27;;;26.40;52.40;;;;;;5061626;28;20437;-81
2022/06/14 03:05:34;;;;;;;1.40;1.30;;;26.40;52.40;;;;;;5067946;28;20437;-81
2022/06/14 03:08:17;;;;;;;1.73;1.17;;;26.40;52.40;;;;;;5069196;28;20413;-81
2022/06/14 03:11:10;;;;;;;1.40;1.30;;;26.40;52.40;;;;;;5064109;28;20405;-81
2022/06/14 03:13:59;;;;;;;1.30;1.07;;;26.40;52.50;;;;;;5062894;28;20427;-82
2022/06/14 03:16:34;;;;;;;1.43;1.20;;;26.30;52.40;;;;;;5068310;28;20475;-82
2022/06/14 03:19:08;;;;;;;1.20;1.10;;;26.30;52.40;;;;;;5067934;28;20429;-82
2022/06/14 03:21:39;;;;;;;1.40;1.30;;;26.30;52.40;;;;;;5068331;28;20413;-82
2022/06/14 03:24:14;;;;;;;1.20;1.00;;;26.30;52.40;;;;;;5068926;28;20418;-82
2022/06/14 03:26:51;;;;;;;1.40;1.20;;;26.30;52.40;;;;;;5062982;28;20406;-82
2022/06/14 03:29:17;;;;;;;1.10;1.00;;;26.30;52.40;;;;;;5068153;28;20424;-82
2022/06/14 03:32:03;;;;;;;1.20;1.10;;;26.30;52.40;;;;;;5063336;28;20491;-82
2022/06/14 03:34:41;;;;;;;1.83;1.20;;;26.40;52.50;;;;;;5068710;28;20198;-82
2022/06/14 03:37:08;;;;;;;2.17;1.30;;;26.40;52.50;;;;;;5060842;28;20418;-82
2022/06/14 03:39:38;;;;;;;1.30;1.20;;;26.40;52.50;;;;;;5066899;28;20425;-82
2022/06/14 03:42:08;;;;;;;1.33;1.23;;;26.40;52.50;;;;;;5069532;28;20406;-82
2022/06/14 03:44:34;;;;;;;1.10;1.00;;;26.40;52.50;;;;;;5067841;28;20443;-82
2022/06/14 03:47:09;;;;;;;1.30;1.10;;;26.40;52.50;;;;;;5060443;28;20501;-82
2022/06/14 03:49:38;;;;;;;1.27;1.17;;;26.40;52.40;;;;;;5066428;28;20432;-82
2022/06/14 03:52:40;;;;;;;1.10;1.00;;;26.40;52.40;;;;;;5067796;28;20450;-82
2022/06/14 03:55:18;;;;;;;1.20;1.10;;;26.40;52.40;;;;;;5065645;28;20616;-82
2022/06/14 03:58:11;;;;;;;1.40;1.30;;;26.40;52.40;;;;;;5066945;28;20417;-82
2022/06/14 04:00:59;;;;;;;1.40;1.10;;;26.40;52.40;;;;;;5062224;28;20435;-82
2022/06/14 04:03:58;;;;;;;1.30;1.10;;;26.40;52.40;;;;;;5064721;28;20447;-82
2022/06/14 04:06:27;;;;;;;1.67;1.23;;;26.40;52.40;;;;;;5053699;28;20735;-82
2022/06/14 04:09:31;;;;;;;1.20;1.00;;;26.40;53.10;;;;;;5061895;28;20445;-82
2022/06/14 04:12:16;;;;;;;1.30;1.20;;;26.40;52.50;;;;;;5063184;28;20401;-83
2022/06/14 04:15:00;;;;;;;1.27;0.93;;;26.40;52.50;;;;;;5063980;28;20451;-82
2022/06/14 04:17:55;;;;;;;1.10;1.00;;;26.40;52.50;;;;;;5066762;28;20817;-83
2022/06/14 04:20:39;;;;;;;1.43;1.20;;;26.40;52.50;;;;;;5065926;28;20440;-82
2022/06/14 04:23:10;;;;;;;1.20;1.10;;;26.40;52.50;;;;;;5063955;28;20397;-83
2022/06/14 04:25:48;;;;;;;2.13;1.40;;;26.40;52.40;;;;;;5063991;28;20417;-83
2022/06/14 04:28:36;;;;;;;1.20;1.10;;;26.40;52.40;;;;;;5065548;28;20504;-82
2022/06/14 04:31:11;;;;;;;2.13;1.37;;;26.50;52.50;;;;;;5059819;28;20429;-82
2022/06/14 04:33:53;;;;;;;1.40;1.30;;;26.50;52.50;;;;;;5064329;28;20508;-82
2022/06/14 04:36:46;;;;;;;1.70;1.53;;;26.50;52.50;;;;;;5061683;28;20468;-82
2022/06/14 04:39:19;;;;;;;1.30;1.10;;;26.50;52.50;;;;;;5057755;28;20578;-83
2022/06/14 04:41:55;;;;;;;1.60;1.30;;;26.50;52.50;;;;;;5060364;28;20918;-83
2022/06/14 04:44:37;;;;;;;1.60;1.50;;;26.50;53.00;;;;;;5067446;28;20425;-82
2022/06/14 04:47:34;;;;;;;1.50;1.40;;;26.50;52.40;;;;;;5066771;28;20478;-82
2022/06/14 04:50:19;;;;;;;2.13;1.20;;;26.50;52.40;;;;;;5044557;28;20430;-82
2022/06/14 04:52:55;;;;;;;1.37;1.13;;;26.50;52.40;;;;;;5060257;28;20414;-83
2022/06/14 04:55:29;;;;;;;1.07;0.97;;;26.50;52.40;;;;;;5068067;28;20511;-83
2022/06/14 04:58:11;;;;;;;1.10;1.00;;;26.60;52.50;;;;;;5066533;28;20422;-82
2022/06/14 05:00:58;;;;;;;1.63;1.17;;;26.60;52.40;;;;;;5067094;28;20444;-83
2022/06/14 05:03:39;;;;;;;1.47;1.07;;;26.60;52.40;;;;;;5063526;28;20444;-83
2022/06/14 05:06:17;;;;;;;1.40;1.30;;;26.60;52.40;;;;;;5067859;28;20417;-82
2022/06/14 05:08:49;;;;;;;1.30;1.10;;;26.60;52.40;;;;;;5060831;28;20425;-82
2022/06/14 05:11:25;;;;;;;1.50;1.03;;;26.60;52.40;;;;;;5066731;28;20920;-82
2022/06/14 05:14:01;;;;;;;1.50;1.40;;;26.60;52.40;;;;;;5062748;28;20973;-82
2022/06/14 05:16:36;;;;;;;1.30;1.20;;;26.60;52.40;;;;;;5067241;28;20445;-82
2022/06/14 05:19:10;;;;;;;1.47;1.30;;;26.60;52.40;;;;;;5067317;28;20413;-83
2022/06/14 05:21:48;;;;;;;1.20;1.10;;;26.60;52.30;;;;;;5067421;28;20418;-83
2022/06/14 05:24:14;;;;;;;1.57;1.13;;;26.60;52.30;;;;;;5067001;28;20508;-82
2022/06/14 05:26:55;;;;;;;1.90;1.00;;;26.60;52.30;;;;;;5067924;28;20943;-83
2022/06/14 05:29:27;;;;;;;1.20;1.10;;;26.60;52.30;;;;;;5067287;28;20432;-83
2022/06/14 05:32:01;;;;;;;1.40;1.30;;;26.60;52.30;;;;;;5068815;28;20421;-82
2022/06/14 05:34:59;;;;;;;1.33;1.23;;;26.60;52.90;;;;;;5061195;28;20449;-82
2022/06/14 05:37:25;;;;;;;1.30;1.20;;;26.70;52.30;;;;;;5066246;28;21393;-82
2022/06/14 05:40:09;;;;;;;1.60;1.43;;;26.60;52.30;;;;;;5057831;28;20440;-82
2022/06/14 05:42:42;;;;;;;1.17;1.07;;;26.60;52.30;;;;;;5068224;28;20163;-82
2022/06/14 05:45:11;;;;;;;1.20;1.00;;;26.70;52.40;;;;;;5068181;28;20422;-82
2022/06/14 05:47:43;;;;;;;1.40;1.30;;;26.70;52.30;;;;;;5068821;28;20892;-82
2022/06/14 05:50:16;;;;;;;1.20;0.93;;;26.70;52.30;;;;;;5067668;28;20440;-82
2022/06/14 05:52:56;;;;;;;1.20;1.10;;;26.70;52.30;;;;;;5067368;28;20419;-82
2022/06/14 05:55:32;;;;;;;1.50;1.17;;;26.70;52.30;;;;;;5067974;28;20466;-82
2022/06/14 05:58:10;;;;;;;1.30;1.10;;;26.70;52.30;;;;;;5068525;28;20456;-82
2022/06/14 06:00:46;;;;;;;1.47;1.00;;;26.70;52.30;;;;;;5068116;28;20444;-82
2022/06/14 06:03:14;;;;;;;1.40;1.30;;;26.70;52.30;;;;;;5067869;28;20410;-82
2022/06/14 06:05:51;;;;;;;1.93;1.20;;;26.70;52.30;;;;;;5067387;28;20448;-82
2022/06/14 06:08:32;;;;;;;1.30;1.10;;;26.70;52.30;;;;;;5069183;28;20400;-83
2022/06/14 06:11:17;;;;;;;1.20;1.10;;;26.70;52.30;;;;;;5068080;28;20414;-83
2022/06/14 06:13:55;;;;;;;1.50;1.40;;;26.70;52.30;;;;;;5067805;28;20426;-83
2022/06/14 06:26:12;;;;;;;1.20;1.10;;;26.70;52.30;;;;;;4992509;28;20377;-82
2022/06/14 06:28:44;;;;;;;1.40;1.10;;;26.70;52.40;;;;;;5072891;28;20477;-82
2022/06/14 06:31:25;;;;;;;1.13;1.03;;;26.70;52.40;;;;;;5072506;28;20457;-82
2022/06/14 06:33:54;;;;;;;1.40;1.30;;;26.70;52.40;;;;;;5072272;28;20447;-82
2022/06/14 06:36:52;;;;;;;1.67;1.07;;;26.70;52.40;;;;;;5071539;28;21004;-82
2022/06/14 06:39:34;;;;;;;1.33;1.10;;;26.70;52.30;;;;;;4992167;28;20412;-82
2022/06/14 06:42:34;;;;;;;1.60;1.20;;;26.70;52.40;;;;;;4976097;28;20405;-82
2022/06/14 06:45:11;;;;;;;1.30;1.20;;;26.70;52.40;;;;;;4967698;28;20792;-82
2022/06/14 06:47:40;;;;;;;1.30;1.20;;;26.70;52.40;;;;;;4976348;28;20452;-82
2022/06/14 06:50:37;;;;;;;1.27;1.17;;;26.70;52.40;;;;;;4991109;28;20417;-82
2022/06/14 06:53:13;;;;;;;1.40;1.10;;;26.70;52.40;;;;;;4918021;29;20424;-82
2022/06/14 06:55:45;;;;;;;1.10;1.00;;;26.70;52.40;;;;;;4916817;29;20463;-82
2022/06/14 06:58:20;;;;;;;1.90;1.03;;;26.70;52.40;;;;;;4932663;29;20507;-82
2022/06/14 07:00:51;;;;;;;1.20;1.10;;;26.70;52.40;;;;;;4916264;29;20462;-82
2022/06/14 07:03:25;;;;;;;1.07;0.90;;;26.70;52.30;;;;;;4915847;29;20408;-82
2022/06/14 07:05:55;;;;;;;1.37;1.27;;;26.70;52.30;;;;;;4931957;29;20420;-82
2022/06/14 07:08:35;;;;;;;1.23;1.13;;;26.80;52.40;;;;;;4917061;29;20444;-82
2022/06/14 07:11:06;;;;;;;1.20;1.00;;;26.70;52.30;;;;;;4916336;29;20526;-82
2022/06/14 07:13:46;;;;;;;1.20;1.00;;;26.80;52.40;;;;;;4915880;29;20456;-82
2022/06/14 07:16:28;;;;;;;1.00;0.80;;;26.80;52.40;;;;;;4959434;28;20457;-82
2022/06/14 07:19:07;;;;;;;1.20;1.00;;;26.80;52.40;;;;;;4972337;28;20440;-82
2022/06/14 07:21:41;;;;;;;1.53;1.00;;;26.80;52.40;;;;;;4990126;28;20421;-81
2022/06/14 07:24:13;;;;;;;1.20;1.10;;;26.80;52.40;;;;;;4990062;28;20413;-81
2022/06/14 07:27:15;;;;;;;1.23;1.03;;;26.70;52.30;;;;;;4988974;28;20420;-82
2022/06/14 07:29:53;;;;;;;1.40;1.30;;;26.80;52.40;;;;;;5008881;28;20494;-82
2022/06/14 07:32:29;;;;;;;1.13;0.93;;;26.80;52.40;;;;;;5067367;28;20485;-81
2022/06/14 07:34:56;;;;;;;1.20;1.00;;;26.80;52.40;;;;;;5062535;28;20468;-81
2022/06/14 07:37:33;;;;;;;1.30;1.20;;;26.80;52.40;;;;;;5064871;28;20441;-81
2022/06/14 07:40:30;;;;;;;1.30;1.20;;;26.80;52.40;;;;;;5067608;28;20424;-81
2022/06/14 07:43:23;;;;;;;1.20;1.10;;;26.80;52.40;;;;;;5068398;28;20410;-82
2022/06/14 07:46:13;;;;;;;1.90;1.10;;;26.80;52.40;;;;;;5072100;28;20430;-82
2022/06/14 07:48:52;;;;;;;1.30;1.00;;;26.80;52.40;;;;;;5060252;28;20505;-83
2022/06/14 07:51:51;;;;;;;1.13;0.87;;;26.80;52.40;;;;;;5066813;28;20441;-83
2022/06/14 07:54:33;;;;;;;1.60;1.40;;;26.80;52.40;;;;;;5058193;28;20418;-83
2022/06/14 07:57:13;;;;;;;1.30;1.03;;;26.80;52.40;;;;;;5053962;28;20430;-83
2022/06/14 07:59:57;;;;;;;1.57;1.00;;;26.80;52.40;;;;;;5066027;28;20425;-83
2022/06/14 08:02:44;;;;;;;1.33;1.23;;;26.80;52.40;;;;;;5074397;28;20464;-83
2022/06/14 08:05:50;;;;;;;1.30;1.10;;;26.80;52.40;;;;;;5069678;28;20448;-83
2022/06/14 08:08:33;;;;;;;0.90;0.80;;;26.80;52.40;;;;;;5071276;28;20493;-82
2022/06/14 08:11:37;;;;;;;;;;;;;;;;;;;;;
2022/06/14 08:14:15;;;;;;;1.20;1.10;;;26.80;52.40;;;;;;5069469;28;20473;-82
2022/06/14 08:17:33;;;;;;;;;;;;;;;;;;;;;
2022/06/14 08:30:15;;;;;;;1.07;0.90;;;26.70;52.40;;;;;;4994079;28;20420;-82
2022/06/14 08:32:54;;;;;;;1.13;0.90;;;26.70;52.50;;;;;;4970232;28;20428;-82
2022/06/14 08:35:58;;;;;;;1.20;1.10;;;26.70;52.50;;;;;;4972471;28;20460;-82
2022/06/14 08:38:42;;;;;;;1.23;1.13;;;26.70;52.40;;;;;;4984791;28;20430;-82
2022/06/14 08:41:44;;;;;;;1.30;0.80;;;26.70;52.50;;;;;;4986618;28;20447;-82
2022/06/14 08:44:22;;;;;;;1.30;0.93;;;26.70;52.40;;;;;;4979089;28;20444;-82
2022/06/14 08:47:18;;;;;;;1.10;1.00;;;26.70;52.50;;;;;;4968162;29;20441;-82
2022/06/14 08:50:41;;;;;;;1.20;1.00;;;26.70;52.40;;;;;;4984710;28;20397;-82
2022/06/14 08:53:51;;;;;;;1.10;1.00;;;26.70;52.50;;;;;;4993127;28;20484;-82
2022/06/14 08:57:05;;;;;;;;;;;;;;;;;;;;;
2022/06/14 09:00:04;;;;;;;1.00;0.80;;;26.70;52.50;;;;;;4988075;28;20437;-82
2022/06/14 09:03:34;;;;;;;1.10;1.00;;;26.70;53.10;;;;;;4933742;29;20468;-82
2022/06/14 09:06:37;;;;;;;1.00;0.80;;;26.70;52.50;;;;;;4856461;29;20439;-82
2022/06/14 09:09:43;;;;;;;1.17;0.90;;;26.70;52.50;;;;;;4847837;29;20416;-82
2022/06/14 09:12:39;;;;;;;1.10;1.00;;;26.70;52.50;;;;;;4848400;29;20415;-82
2022/06/14 09:15:42;;;;;;;1.17;1.00;;;26.70;52.50;;;;;;4836662;29;20476;-82
2022/06/14 09:21:49;;;;;;;1.13;1.00;;;26.70;52.60;;;;;;4850015;29;20425;-82
2022/06/14 09:31:26;;;;;;;1.00;0.90;;;26.70;52.50;;;;;;4826364;29;20424;-83
2022/06/14 09:34:19;;;;;;;1.40;1.07;;;26.70;52.50;;;;;;4830916;29;20427;-82
2022/06/14 09:37:12;;;;;;;1.10;0.90;;;26.70;52.60;;;;;;4838386;29;20548;-83
2022/06/14 09:40:29;;;;;;;1.30;0.97;;;26.70;52.60;;;;;;4845086;29;20523;-83
2022/06/14 09:46:50;;;;;;;1.20;1.10;;;26.70;52.60;;;;;;4907012;29;20466;-83
2022/06/14 09:49:59;;;;;;;;;;;;;;;;;;;;;
2022/06/14 09:52:52;;;;;;;1.23;0.93;;;26.70;52.60;;;;;;4916384;29;20433;-82
2022/06/14 10:09:17;;;;;;;1.00;0.80;;;26.70;52.60;;;;;;4934183;29;20468;-83
2022/06/14 10:12:23;;;;;;;1.00;0.83;;;26.70;52.70;;;;;;4915064;29;20532;-82
2022/06/14 10:15:26;;;;;;;1.20;0.90;;;26.70;52.70;;;;;;4913961;29;20496;-82
2022/06/14 10:18:06;;;;;;;1.00;0.90;;;26.70;52.70;;;;;;4907212;29;20427;-82
2022/06/14 10:21:12;;;;;;;1.07;0.90;;;26.70;52.60;;;;;;4925040;29;20427;-82
2022/06/14 10:24:02;;;;;;;0.97;0.73;;;26.70;52.60;;;;;;4925167;29;20415;-82
2022/06/14 10:30:06;;;;;;;0.90;0.80;;;26.60;52.60;;;;;;4928131;29;20400;-82
2022/06/14 10:33:09;;;;;;;1.37;0.80;;;26.70;52.60;;;;;;4951225;28;20413;-82
2022/06/14 10:36:05;;;;;;;1.10;1.00;;;26.70;52.60;;;;;;4998344;28;20527;-82
2022/06/14 10:39:17;;;;;;;1.10;1.00;;;26.70;52.60;;;;;;4998049;28;20397;-82
2022/06/14 10:42:11;;;;;;;1.33;1.07;;;26.70;52.60;;;;;;4998856;28;20408;-82
2022/06/14 10:45:16;;;;;;;1.20;1.10;;;26.70;52.60;;;;;;4997827;28;20478;-82
2022/06/14 10:48:25;;;;;;;1.10;0.90;;;26.70;52.60;;;;;;4998147;28;20417;-82
2022/06/14 10:51:21;;;;;;;1.03;0.73;;;26.70;52.60;;;;;;5013324;28;20428;-82
2022/06/14 10:54:16;;;;;;;0.97;0.80;;;26.70;52.60;;;;;;5076740;28;20404;-82
2022/06/14 10:57:15;;;;;;;1.10;1.00;;;26.70;52.60;;;;;;5060036;28;20417;-82
2022/06/14 11:00:15;;;;;;;1.10;0.97;;;26.70;52.60;;;;;;5077440;28;20820;-82
2022/06/14 11:03:31;;;;;;;1.00;0.90;;;26.70;52.60;;;;;;5075613;28;20413;-82
2022/06/14 11:06:18;;;;;;;1.07;0.90;;;26.70;52.60;;;;;;5017964;28;20412;-82
2022/06/14 11:12:56;;;;;;;1.00;0.80;;;26.70;52.60;;;;;;4978342;29;20457;-82
2022/06/14 11:15:24;;;;;;;0.90;0.80;;;26.70;52.60;;;;;;4885909;29;20487;-81
2022/06/14 11:18:29;;;;;;;1.00;0.70;;;26.70;52.60;;;;;;4902539;29;20447;-81
2022/06/14 11:28:25;;;;;;;1.00;0.90;;;26.70;52.60;;;;;;4902888;29;20381;-81
2022/06/14 11:34:32;;;;;;;0.90;0.70;;;26.70;52.60;;;;;;4902034;29;20416;-81
2022/06/14 11:37:53;;;;;;;1.10;1.00;;;26.60;52.60;;;;;;4900912;29;20425;-82
2022/06/14 11:41:05;;;;;;;0.90;0.80;;;26.70;52.60;;;;;;4907625;29;20404;-82
2022/06/14 11:44:20;;;;;;;0.93;0.80;;;26.70;52.60;;;;;;4951841;29;20415;-82
2022/06/14 11:47:09;;;;;;;1.10;0.80;;;26.70;52.60;;;;;;4957340;29;20426;-82
2022/06/14 11:50:21;;;;;;;1.10;1.00;;;26.60;52.60;;;;;;4987076;28;20410;-81
2022/06/14 11:53:35;;;;;;;0.90;0.70;;;26.70;52.70;;;;;;5052260;28;20391;-83
2022/06/14 11:56:29;;;;;;;1.20;0.90;;;26.70;52.60;;;;;;5068074;28;20429;-82
2022/06/14 12:02:59;;;;;;;1.10;0.83;;;26.70;52.60;;;;;;5077025;28;20374;-82
2022/06/14 12:06:08;;;;;;;1.13;0.80;;;26.70;52.60;;;;;;4980126;28;20424;-82
2022/06/14 12:09:00;;;;;;;1.13;0.90;;;26.70;52.60;;;;;;4941744;29;20423;-82
2022/06/14 12:11:51;;;;;;;1.10;0.93;;;26.60;52.60;;;;;;4882568;29;20411;-82
2022/06/14 12:17:53;;;;;;;0.97;0.80;;;26.70;52.60;;;;;;4882576;29;20478;-83
2022/06/14 12:20:26;;;;;;;1.13;1.00;;;26.70;52.60;;;;;;4866803;29;20426;-82
2022/06/14 12:23:20;;;;;;;1.27;1.10;;;26.70;52.60;;;;;;4882683;29;20433;-82
2022/06/14 12:29:11;;;;;;;0.90;0.70;;;26.70;52.60;;;;;;4882427;29;20425;-82
2022/06/14 12:31:49;;;;;;;1.43;0.93;;;26.70;52.60;;;;;;4881244;29;20443;-82
2022/06/14 12:34:41;;;;;;;0.90;0.80;;;26.70;52.60;;;;;;4882465;29;20491;-82
2022/06/14 12:38:02;;;;;;;0.97;0.83;;;26.70;52.60;;;;;;4882181;29;20414;-82
2022/06/14 12:43:58;;;;;;;1.03;0.80;;;26.70;52.60;;;;;;4883000;29;20432;-82
2022/06/14 12:46:47;;;;;;;1.00;0.90;;;26.70;52.60;;;;;;4902492;29;20389;-82
2022/06/14 12:49:45;;;;;;;1.10;0.87;;;26.70;52.60;;;;;;4983212;28;20408;-83
2022/06/14 12:52:33;;;;;;;1.00;0.87;;;26.70;52.60;;;;;;5016064;28;20400;-83
2022/06/14 12:55:25;;;;;;;0.93;0.70;;;26.70;52.60;;;;;;4983344;28;20471;-83
2022/06/14 13:09:09;;;;;;;1.13;0.83;;;26.70;52.60;;;;;;6036345;22;3788837;-82
2022/06/14 13:12:28;;;;;;;0.97;0.70;;;27.40;51.30;;;;;;6189674;23;20375;-83
2022/06/14 13:15:43;;;;;;;1.03;0.80;;;27.30;51.60;;;;;;6145776;23;20471;-82
2022/06/14 13:18:37;;;;;;;1.10;0.83;;;27.10;51.70;;;;;;6098487;23;20430;-82
2022/06/14 13:22:04;;;;;;;0.90;0.70;;;27.00;51.90;;;;;;6099579;23;20534;-82
2022/06/14 13:24:50;;;;;;;1.10;1.00;;;26.90;52.00;;;;;;6043181;23;20383;-82
2022/06/14 13:27:55;;;;;;;1.00;0.90;;;26.90;52.10;;;;;;6019649;23;20384;-83
2022/06/14 13:30:59;;;;;;;0.90;0.80;;;26.90;52.20;;;;;;6014065;23;20420;-83
2022/06/14 13:34:11;;;;;;;1.00;0.80;;;26.80;52.30;;;;;;5958411;24;20397;-83
2022/06/14 13:37:05;;;;;;;1.10;0.80;;;26.80;52.30;;;;;;5954398;24;20473;-83
2022/06/14 13:39:39;;;;;;;1.17;0.93;;;26.70;52.30;;;;;;5934404;24;20386;-83
2022/06/14 13:42:36;;;;;;;1.10;0.90;;;26.70;52.40;;;;;;5935509;24;20393;-83
2022/06/14 13:45:13;;;;;;;1.07;0.90;;;26.70;52.40;;;;;;5959049;24;20885;-83
2022/06/14 13:47:50;;;;;;;0.90;0.80;;;26.70;52.40;;;;;;5936257;24;20443;-82
2022/06/14 13:50:44;;;;;;;1.00;0.83;;;26.70;52.40;;;;;;5936387;24;20386;-83
2022/06/14 13:56:56;;;;;;;1.10;0.80;;;26.70;52.50;;;;;;5876019;24;20448;-83
2022/06/14 13:59:37;;;;;;;1.10;1.00;;;26.70;52.50;;;;;;5924205;24;20387;-83
2022/06/14 14:02:49;;;;;;;1.20;0.90;;;26.70;52.50;;;;;;5928704;24;20387;-82
2022/06/14 14:05:43;;;;;;;1.00;0.80;;;26.70;52.50;;;;;;5929348;24;20428;-83
2022/06/14 14:08:52;;;;;;;1.10;1.00;;;26.70;52.50;;;;;;5924067;24;20482;-82
2022/06/14 14:11:55;;;;;;;1.00;0.70;;;26.70;52.50;;;;;;5815860;24;20471;-83
2022/06/14 14:18:01;;;;;;;1.10;1.00;;;26.70;52.60;;;;;;5763932;25;20385;-82
2022/06/14 14:20:56;;;;;;;1.00;0.80;;;26.50;54.90;;;;;;5763703;25;20400;-81
2022/06/14 14:23:58;;;;;;;1.43;1.10;;;26.60;52.50;;;;;;5741783;25;20397;-81
2022/06/14 14:26:32;;;;;;;0.97;0.80;;;26.60;52.50;;;;;;5762985;25;20425;-81
2022/06/14 14:29:49;;;;;;;1.10;0.90;;;26.50;52.80;;;;;;5766314;24;20449;-83
2022/06/14 14:32:35;;;;;;;1.00;0.80;;;26.60;52.60;;;;;;5783804;24;20399;-83
2022/06/14 14:35:50;;;;;;;1.10;0.80;;;26.60;53.00;;;;;;5815930;24;20375;-83
2022/06/14 14:38:48;;;;;;;0.83;0.73;;;26.50;52.60;;;;;;5792228;24;20401;-83
2022/06/14 14:41:44;;;;;;;1.00;0.80;;;26.60;53.10;;;;;;5842302;24;20380;-82
2022/06/14 14:44:40;;;;;;;0.90;0.80;;;26.80;52.90;;;;;;5904035;24;20389;-82
2022/06/14 14:47:20;;;;;;;1.00;0.80;;;26.50;52.70;;;;;;5988808;23;20484;-82
2022/06/14 14:50:18;;;;;;;0.97;0.73;;;26.50;52.70;;;;;;6012254;23;20397;-82
2022/06/14 14:56:09;;;;;;;1.17;0.90;;;26.50;52.70;;;;;;6035907;23;20385;-82
2022/06/14 15:05:49;;;;;;;1.00;0.80;;;26.40;52.70;;;;;;6035151;23;20427;-82
2022/06/14 15:08:32;;;;;;;1.10;0.90;;;26.60;52.80;;;;;;6035131;23;20418;-82
2022/06/14 15:11:22;;;;;;;1.00;0.83;;;26.50;52.80;;;;;;6063300;23;20403;-82
2022/06/14 15:14:00;;;;;;;0.90;0.70;;;26.50;52.80;;;;;;6063915;23;20444;-82
2022/06/14 15:16:37;;;;;;;1.00;0.70;;;26.50;52.70;;;;;;6062022;23;20375;-82
2022/06/14 15:22:24;;;;;;;1.27;0.73;;;26.50;52.70;;;;;;6064194;23;20367;-82
2022/06/14 15:24:59;;;;;;;1.10;0.80;;;26.90;53.00;;;;;;6063242;23;20364;-82
2022/06/14 15:28:07;;;;;;;1.00;0.80;;;26.50;52.70;;;;;;6063090;23;20483;-83
2022/06/14 15:30:54;;;;;;;1.00;0.80;;;26.60;52.80;;;;;;6032572;23;20372;-82
2022/06/14 15:33:22;;;;;;;1.17;0.90;;;26.50;52.70;;;;;;6063010;23;20364;-81
2022/06/14 15:35:53;;;;;;;1.00;0.80;;;26.50;52.70;;;;;;6062959;23;20391;-81
2022/06/14 15:38:29;;;;;;;1.00;0.80;;;26.50;52.70;;;;;;6039529;23;20384;-81
2022/06/14 15:41:20;;;;;;;1.17;0.90;;;26.60;52.70;;;;;;6039728;23;20418;-82
2022/06/14 15:44:24;;;;;;;0.97;0.77;;;26.60;52.70;;;;;;6063058;23;20360;-82
2022/06/14 15:46:59;;;;;;;1.00;0.83;;;26.60;52.70;;;;;;6039156;23;20407;-83
2022/06/14 15:49:28;;;;;;;1.00;0.83;;;26.50;52.70;;;;;;6063057;23;20419;-83
2022/06/14 15:51:56;;;;;;;1.07;0.97;;;26.60;52.70;;;;;;6039819;23;20417;-83
2022/06/14 15:54:33;;;;;;;0.90;0.80;;;26.60;52.70;;;;;;6040780;23;20386;-83
2022/06/14 15:57:22;;;;;;;1.03;0.90;;;26.60;52.70;;;;;;6063733;23;20387;-83
2022/06/14 16:00:19;;;;;;;0.97;0.77;;;26.60;52.70;;;;;;6040749;23;20384;-83
2022/06/14 16:03:12;;;;;;;1.03;0.80;;;26.60;52.70;;;;;;6063695;23;20388;-82
2022/06/14 16:06:04;;;;;;;1.00;0.80;;;26.60;52.70;;;;;;6063991;23;20363;-82
2022/06/14 16:08:35;;;;;;;1.10;0.90;;;26.60;52.70;;;;;;6128736;23;20420;-82
2022/06/14 16:14:25;;;;;;;1.13;0.90;;;26.60;52.70;;;;;;6092392;23;20362;-83
2022/06/14 16:17:36;;;;;;;1.00;0.80;;;26.60;52.70;;;;;;6092102;23;20459;-83
2022/06/14 16:20:14;;;;;;;1.00;0.70;;;26.60;52.70;;;;;;5983819;24;20397;-83
2022/06/14 16:22:46;;;;;;;0.90;0.80;;;26.60;52.70;;;;;;6004821;24;20388;-83
2022/06/14 16:25:32;;;;;;;1.20;0.90;;;26.60;52.70;;;;;;6005744;24;20381;-83
2022/06/14 16:28:11;;;;;;;0.97;0.73;;;26.60;52.70;;;;;;6005177;24;20433;-82